createdAt,value
2022-08-22T00:01:56.554Z,23.24
2022-08-22T00:04:34.430Z,23.21
2022-08-22T00:07:09.264Z,23.20
2022-08-22T00:09:45.310Z,23.18
2022-08-22T00:12:22.723Z,23.17
2022-08-22T00:14:59.120Z,23.16
2022-08-22T00:17:41.120Z,23.15
2022-08-22T00:20:16.687Z,23.14
2022-08-22T00:22:52.535Z,23.13
2022-08-22T00:25:45.499Z,23.11
2022-08-22T00:28:17.930Z,23.10
2022-08-22T00:30:59.640Z,23.09
2022-08-22T00:33:36.525Z,23.09
2022-08-22T00:36:13.735Z,23.06
2022-08-22T00:38:47.832Z,23.04
2022-08-22T00:41:31.713Z,23.01
2022-08-22T00:44:23.183Z,23.00
2022-08-22T00:47:07.865Z,22.96
2022-08-22T00:49:56.524Z,22.94
2022-08-22T00:52:41.414Z,22.92
2022-08-22T00:55:28.079Z,22.89
2022-08-22T00:58:40.261Z,22.85
2022-08-22T01:01:11.298Z,22.80
2022-08-22T01:03:53.936Z,22.79
2022-08-22T01:06:30.792Z,22.75
2022-08-22T01:09:05.904Z,22.72
2022-08-22T01:12:00.532Z,22.68
2022-08-22T01:14:39.879Z,22.67
2022-08-22T01:17:45.575Z,22.64
2022-08-22T01:21:16.866Z,22.62
2022-08-22T01:24:59.988Z,22.60
2022-08-22T01:28:07.359Z,22.58
2022-08-22T01:30:57.827Z,22.55
2022-08-22T01:34:18.307Z,22.50
2022-08-22T01:37:10.329Z,22.46
2022-08-22T01:40:02.240Z,22.44
2022-08-22T01:42:54.881Z,22.41
2022-08-22T01:45:59.557Z,22.40
2022-08-22T01:48:36.080Z,22.38
2022-08-22T01:51:18.405Z,22.36
2022-08-22T01:54:01.669Z,22.34
2022-08-22T01:56:37.009Z,22.33
2022-08-22T01:59:10.059Z,22.34
2022-08-22T02:01:53.603Z,22.35
2022-08-22T02:04:34.614Z,22.30
2022-08-22T02:07:09.086Z,22.32
2022-08-22T02:09:46.457Z,22.30
2022-08-22T02:12:28.080Z,22.29
2022-08-22T02:15:09.386Z,22.29
2022-08-22T02:17:55.016Z,22.29
2022-08-22T02:20:28.608Z,22.30
2022-08-22T02:23:04.971Z,22.31
2022-08-22T02:25:47.174Z,22.29
2022-08-22T02:28:20.862Z,22.29
2022-08-22T02:30:54.553Z,22.29
2022-08-22T02:33:32.577Z,22.30
2022-08-22T02:36:08.213Z,22.30
2022-08-22T02:38:44.058Z,22.30
2022-08-22T02:41:19.832Z,22.24
2022-08-22T02:43:53.171Z,22.28
2022-08-22T02:46:31.183Z,22.29
2022-08-22T02:49:10.302Z,22.27
2022-08-22T02:51:50.849Z,22.27
2022-08-22T02:54:29.141Z,22.28
2022-08-22T02:57:06.266Z,22.27
2022-08-22T03:00:32.088Z,22.26
2022-08-22T03:03:05.634Z,22.18
2022-08-22T03:05:49.300Z,22.25
2022-08-22T03:08:23.836Z,22.22
2022-08-22T03:11:04.705Z,22.22
2022-08-22T03:13:47.653Z,22.20
2022-08-22T03:16:22.678Z,22.19
2022-08-22T03:19:00.651Z,22.18
2022-08-22T03:21:35.282Z,22.16
2022-08-22T03:24:13.579Z,22.11
2022-08-22T03:26:50.422Z,22.14
2022-08-22T03:29:24.081Z,22.12
2022-08-22T03:32:15.196Z,22.10
2022-08-22T03:34:59.267Z,22.11
2022-08-22T03:37:40.867Z,22.09
2022-08-22T03:40:23.974Z,22.09
2022-08-22T03:43:33.981Z,22.08
2022-08-22T03:46:24.312Z,22.08
2022-08-22T03:49:21.533Z,22.06
2022-08-22T03:52:19.165Z,22.05
2022-08-22T03:55:18.361Z,22.04
2022-08-22T03:58:22.285Z,22.03
2022-08-22T04:01:25.935Z,22.03
2022-08-22T04:04:27.768Z,22.01
2022-08-22T04:07:33.447Z,22.00
2022-08-22T04:10:26.875Z,21.98
2022-08-22T04:13:18.499Z,21.98
2022-08-22T04:16:30.186Z,21.98
2022-08-22T04:19:19.436Z,21.98
2022-08-22T04:22:20.663Z,21.98
2022-08-22T04:24:59.626Z,21.95
2022-08-22T04:27:32.896Z,21.97
2022-08-22T04:30:07.514Z,21.97
2022-08-22T04:32:43.703Z,21.97
2022-08-22T04:35:20.157Z,21.98
2022-08-22T04:37:53.328Z,21.97
2022-08-22T04:40:26.896Z,21.99
2022-08-22T04:43:03.752Z,21.98
2022-08-22T04:45:36.868Z,21.99
2022-08-22T04:48:09.805Z,21.97
2022-08-22T04:50:45.303Z,21.97
2022-08-22T04:53:26.915Z,21.98
2022-08-22T04:56:07.277Z,21.98
2022-08-22T04:58:45.078Z,21.99
2022-08-22T05:01:20.731Z,21.98
2022-08-22T05:03:54.923Z,21.98
2022-08-22T05:06:28.618Z,21.98
2022-08-22T05:09:00.900Z,21.97
2022-08-22T05:11:30.964Z,21.95
2022-08-22T05:14:04.439Z,21.96
2022-08-22T05:16:37.807Z,21.94
2022-08-22T05:19:15.713Z,21.92
2022-08-22T05:21:49.520Z,21.94
2022-08-22T05:24:28.099Z,21.93
2022-08-22T05:26:58.668Z,21.94
2022-08-22T05:29:32.657Z,21.95
2022-08-22T05:32:04.356Z,21.94
2022-08-22T05:34:37.522Z,21.95
2022-08-22T05:37:14.204Z,21.96
2022-08-22T05:39:48.616Z,21.95
2022-08-22T05:42:23.596Z,21.97
2022-08-22T05:44:51.913Z,21.96
2022-08-22T05:47:23.978Z,21.98
2022-08-22T05:50:00.627Z,21.99
2022-08-22T05:52:43.543Z,22.00
2022-08-22T05:55:25.444Z,22.00
2022-08-22T05:58:20.779Z,22.01
2022-08-22T06:00:55.334Z,22.00
2022-08-22T06:03:28.940Z,22.01
2022-08-22T06:06:01.250Z,22.01
2022-08-22T06:08:35.429Z,22.03
2022-08-22T06:11:10.482Z,22.04
2022-08-22T06:13:41.738Z,22.01
2022-08-22T06:16:17.969Z,22.07
2022-08-22T06:18:46.681Z,22.08
2022-08-22T06:21:21.855Z,22.11
2022-08-22T06:23:56.705Z,22.14
2022-08-22T06:26:26.883Z,22.15
2022-08-22T06:28:59.574Z,22.18
2022-08-22T06:31:32.473Z,22.21
2022-08-22T06:34:05.893Z,22.25
2022-08-22T06:36:36.635Z,22.26
2022-08-22T06:39:14.953Z,22.30
2022-08-22T06:41:50.460Z,22.34
2022-08-22T06:44:23.304Z,22.35
2022-08-22T06:46:55.393Z,22.39
2022-08-22T06:49:26.165Z,22.40
2022-08-22T06:51:58.719Z,22.44
2022-08-22T06:54:34.411Z,22.47
2022-08-22T06:57:04.605Z,22.49
2022-08-22T06:59:37.933Z,22.53
2022-08-22T07:02:17.735Z,22.55
2022-08-22T07:04:50.127Z,22.60
2022-08-22T07:07:21.017Z,22.63
2022-08-22T07:09:55.480Z,22.67
2022-08-22T07:12:27.269Z,22.69
2022-08-22T07:15:00.672Z,22.74
2022-08-22T07:17:31.447Z,22.75
2022-08-22T07:20:04.999Z,22.78
2022-08-22T07:22:36.517Z,22.80
2022-08-22T07:25:11.002Z,22.83
2022-08-22T07:27:53.704Z,22.85
2022-08-22T07:30:27.504Z,22.87
2022-08-22T07:33:23.634Z,22.89
2022-08-22T07:35:56.901Z,22.92
2022-08-22T07:38:36.341Z,22.92
2022-08-22T07:41:14.033Z,22.94
2022-08-22T07:43:46.943Z,22.95
2022-08-22T07:46:29.726Z,22.98
2022-08-22T07:49:10.313Z,22.98
2022-08-22T07:51:44.549Z,23.02
2022-08-22T07:54:15.825Z,23.02
2022-08-22T07:56:52.838Z,23.06
2022-08-22T07:59:22.517Z,23.05
2022-08-22T08:01:54.113Z,23.07
2022-08-22T08:04:25.171Z,23.06
2022-08-22T08:06:56.188Z,23.05
2022-08-22T08:09:26.354Z,23.05
2022-08-22T08:11:55.844Z,23.07
2022-08-22T08:14:25.273Z,23.09
2022-08-22T08:17:03.789Z,23.13
2022-08-22T08:19:34.448Z,23.14
2022-08-22T08:22:04.969Z,23.15
2022-08-22T08:24:40.975Z,23.21
2022-08-22T08:27:34.996Z,23.24
2022-08-22T08:30:06.659Z,23.29
2022-08-22T08:32:38.667Z,23.33
2022-08-22T08:35:23.314Z,23.41
2022-08-22T08:37:58.363Z,23.43
2022-08-22T08:40:48.526Z,23.55
2022-08-22T08:43:30.191Z,23.66
2022-08-22T08:46:39.291Z,23.81
2022-08-22T08:49:25.931Z,23.96
2022-08-22T08:52:21.417Z,24.13
2022-08-22T08:55:02.467Z,24.23
2022-08-22T08:58:10.237Z,24.47
2022-08-22T09:00:55.830Z,24.58
2022-08-22T09:03:51.511Z,24.69
2022-08-22T09:06:43.905Z,24.78
2022-08-22T09:09:41.270Z,24.86
2022-08-22T09:12:56.226Z,24.93
2022-08-22T09:15:43.817Z,24.96
2022-08-22T09:18:58.083Z,25.09
2022-08-22T09:21:55.542Z,25.16
2022-08-22T09:24:49.108Z,25.23
2022-08-22T09:27:25.184Z,25.24
2022-08-22T09:30:00.826Z,25.32
2022-08-22T09:32:44.077Z,25.37
2022-08-22T09:35:23.321Z,25.44
2022-08-22T09:38:11.037Z,25.52
2022-08-22T09:40:45.694Z,25.59
2022-08-22T09:43:21.146Z,25.66
2022-08-22T09:45:57.895Z,25.78
2022-08-22T09:48:50.070Z,25.89
2022-08-22T09:51:34.540Z,26.01
2022-08-22T09:54:31.217Z,26.10
2022-08-22T09:57:15.108Z,26.18
2022-08-22T10:00:02.077Z,26.30
2022-08-22T10:02:36.706Z,26.40
2022-08-22T10:05:40.636Z,26.46
2022-08-22T10:08:20.668Z,26.56
2022-08-22T10:11:33.547Z,26.61
2022-08-22T10:14:12.576Z,26.69
2022-08-22T10:16:54.511Z,26.77
2022-08-22T10:19:29.928Z,26.84
2022-08-22T10:22:29.852Z,26.92
2022-08-22T10:25:18.536Z,27.03
2022-08-22T10:27:57.079Z,27.13
2022-08-22T10:30:29.118Z,27.19
2022-08-22T10:33:03.545Z,27.28
2022-08-22T10:35:39.017Z,27.34
2022-08-22T10:38:25.312Z,27.46
2022-08-22T10:41:01.714Z,27.56
2022-08-22T10:43:38.909Z,27.65
2022-08-22T10:46:14.369Z,27.73
2022-08-22T10:48:48.985Z,27.81
2022-08-22T10:51:25.466Z,27.86
2022-08-22T10:54:19.845Z,27.96
2022-08-22T10:56:55.586Z,28.02
2022-08-22T10:59:44.720Z,28.09
2022-08-22T11:02:39.445Z,28.17
2022-08-22T11:05:33.775Z,28.21
2022-08-22T11:08:14.647Z,28.27
2022-08-22T11:11:03.158Z,28.27
2022-08-22T11:13:42.303Z,28.38
2022-08-22T11:16:24.926Z,28.44
2022-08-22T11:19:15.023Z,28.53
2022-08-22T11:21:57.928Z,28.60
2022-08-22T11:24:58.063Z,28.66
2022-08-22T11:27:39.786Z,28.65
2022-08-22T11:30:18.693Z,28.67
2022-08-22T11:33:17.859Z,28.70
2022-08-22T11:35:54.440Z,28.76
2022-08-22T11:38:32.622Z,28.59
2022-08-22T11:41:05.269Z,28.65
2022-08-22T11:43:44.591Z,28.62
2022-08-22T11:46:23.066Z,28.60
2022-08-22T11:49:18.975Z,28.63
2022-08-22T11:51:57.433Z,28.66
2022-08-22T11:54:35.102Z,28.74
2022-08-22T11:57:08.617Z,28.77
2022-08-22T12:00:01.753Z,28.83
2022-08-22T12:02:42.198Z,28.89
2022-08-22T12:05:20.214Z,28.99
2022-08-22T12:07:57.752Z,29.03
2022-08-22T12:10:31.497Z,29.14
2022-08-22T12:13:06.257Z,29.18
2022-08-22T12:15:43.605Z,29.07
2022-08-22T12:18:31.155Z,29.24
2022-08-22T12:21:19.074Z,29.30
2022-08-22T12:24:11.279Z,29.38
2022-08-22T12:27:03.194Z,29.44
2022-08-22T12:29:45.438Z,29.48
2022-08-22T12:32:52.126Z,29.51
2022-08-22T12:35:32.709Z,29.48
2022-08-22T12:38:28.798Z,29.48
2022-08-22T12:41:35.888Z,29.57
2022-08-22T12:44:21.352Z,29.57
2022-08-22T12:47:04.309Z,29.54
2022-08-22T12:49:49.773Z,29.60
2022-08-22T12:52:33.108Z,29.58
2022-08-22T12:55:33.860Z,29.56
2022-08-22T12:58:12.023Z,29.60
2022-08-22T13:00:45.240Z,29.60
2022-08-22T13:03:25.116Z,29.62
2022-08-22T13:05:57.015Z,29.64
2022-08-22T13:08:32.603Z,29.67
2022-08-22T13:11:03.195Z,29.60
2022-08-22T13:13:41.354Z,29.65
2022-08-22T13:16:12.323Z,29.50
2022-08-22T13:18:53.596Z,29.57
2022-08-22T13:21:31.634Z,29.66
2022-08-22T13:24:10.879Z,29.71
2022-08-22T13:26:49.106Z,29.76
2022-08-22T13:29:26.169Z,29.81
2022-08-22T13:32:00.375Z,29.84
2022-08-22T13:34:40.582Z,29.87
2022-08-22T13:37:17.457Z,29.92
2022-08-22T13:39:54.687Z,29.95
2022-08-22T13:42:30.309Z,29.95
2022-08-22T13:45:04.345Z,29.97
2022-08-22T13:47:39.235Z,30.02
2022-08-22T13:50:14.168Z,30.00
2022-08-22T13:52:49.259Z,30.02
2022-08-22T13:55:29.703Z,29.99
2022-08-22T13:58:06.898Z,30.02
2022-08-22T14:01:16.436Z,30.02
2022-08-22T14:03:48.791Z,30.02
2022-08-22T14:06:36.842Z,30.02
2022-08-22T14:09:15.077Z,29.96
2022-08-22T14:11:51.965Z,29.86
2022-08-22T14:14:27.392Z,29.83
2022-08-22T14:16:58.212Z,29.79
2022-08-22T14:19:48.992Z,29.78
2022-08-22T14:22:32.079Z,29.75
2022-08-22T14:25:07.165Z,29.75
2022-08-22T14:27:43.959Z,29.76
2022-08-22T14:30:18.668Z,29.76
2022-08-22T14:32:52.221Z,29.76
2022-08-22T14:35:34.647Z,29.76
2022-08-22T14:38:17.901Z,29.77
2022-08-22T14:40:46.731Z,29.76
2022-08-22T14:43:23.937Z,29.80
2022-08-22T14:46:02.230Z,29.83
2022-08-22T14:48:40.548Z,29.85
2022-08-22T14:51:11.665Z,29.89
2022-08-22T14:53:41.549Z,29.91
2022-08-22T14:56:12.469Z,29.91
2022-08-22T14:58:52.467Z,29.96
2022-08-22T15:01:24.311Z,29.98
2022-08-22T15:03:55.451Z,29.94
2022-08-22T15:06:37.261Z,29.96
2022-08-22T15:09:09.274Z,29.99
2022-08-22T15:11:42.317Z,30.01
2022-08-22T15:14:23.203Z,30.05
2022-08-22T15:16:55.507Z,30.06
2022-08-22T15:19:27.622Z,30.06
2022-08-22T15:22:11.344Z,30.06
2022-08-22T15:24:45.234Z,30.05
2022-08-22T15:27:19.108Z,30.05
2022-08-22T15:29:53.411Z,30.03
2022-08-22T15:32:23.458Z,30.00
2022-08-22T15:35:03.571Z,29.97
2022-08-22T15:37:34.949Z,29.98
2022-08-22T15:40:12.070Z,29.96
2022-08-22T15:42:43.368Z,29.93
2022-08-22T15:45:23.993Z,29.95
2022-08-22T15:47:54.424Z,29.93
2022-08-22T15:50:35.826Z,29.96
2022-08-22T15:53:16.295Z,29.98
2022-08-22T15:56:15.443Z,29.98
2022-08-22T15:58:49.176Z,29.98
2022-08-22T16:01:22.215Z,29.97
2022-08-22T16:03:56.813Z,29.95
2022-08-22T16:06:43.748Z,29.93
2022-08-22T16:09:35.769Z,29.90
2022-08-22T16:12:09.498Z,29.89
2022-08-22T16:14:50.876Z,29.87
2022-08-22T16:17:45.020Z,29.84
2022-08-22T16:20:57.029Z,29.81
2022-08-22T16:23:24.980Z,29.79
2022-08-22T16:26:12.355Z,29.77
2022-08-22T16:28:58.169Z,29.74
2022-08-22T16:31:31.275Z,29.71
2022-08-22T16:34:24.395Z,29.67
2022-08-22T16:37:43.946Z,29.65
2022-08-22T16:40:18.586Z,29.62
2022-08-22T16:42:50.767Z,29.58
2022-08-22T16:45:22.207Z,29.57
2022-08-22T16:47:58.099Z,29.52
2022-08-22T16:50:34.821Z,29.49
2022-08-22T16:53:10.034Z,29.49
2022-08-22T16:56:13.952Z,29.48
2022-08-22T16:59:22.062Z,29.47
2022-08-22T17:02:07.349Z,29.46
2022-08-22T17:04:41.613Z,29.42
2022-08-22T17:07:20.328Z,29.39
2022-08-22T17:10:13.100Z,29.36
2022-08-22T17:13:06.901Z,29.33
2022-08-22T17:15:41.978Z,29.29
2022-08-22T17:18:20.017Z,29.29
2022-08-22T17:20:54.073Z,29.27
2022-08-22T17:23:36.704Z,29.23
2022-08-22T17:26:18.982Z,29.16
2022-08-22T17:28:57.657Z,29.13
2022-08-22T17:31:34.426Z,29.08
2022-08-22T17:34:18.597Z,29.05
2022-08-22T17:37:04.914Z,29.01
2022-08-22T17:40:04.494Z,28.95
2022-08-22T17:42:46.727Z,28.93
2022-08-22T17:45:27.545Z,28.88
2022-08-22T17:48:03.937Z,28.84
2022-08-22T17:50:39.545Z,28.80
2022-08-22T17:53:16.490Z,28.76
2022-08-22T17:56:05.759Z,28.72
2022-08-22T17:58:43.933Z,28.68
2022-08-22T18:01:16.552Z,28.63
2022-08-22T18:03:53.402Z,28.60
2022-08-22T18:06:25.389Z,28.54
2022-08-22T18:09:15.187Z,28.53
2022-08-22T18:11:51.681Z,28.50
2022-08-22T18:14:30.979Z,28.47
2022-08-22T18:17:00.940Z,28.39
2022-08-22T18:19:43.355Z,28.38
2022-08-22T18:22:20.661Z,28.35
2022-08-22T18:24:55.734Z,28.32
2022-08-22T18:27:34.662Z,28.31
2022-08-22T18:30:08.173Z,28.28
2022-08-22T18:32:43.880Z,28.25
2022-08-22T18:35:17.997Z,28.22
2022-08-22T18:37:56.423Z,28.19
2022-08-22T18:40:34.483Z,28.14
2022-08-22T18:43:14.501Z,28.08
2022-08-22T18:46:05.917Z,28.03
2022-08-22T18:48:59.367Z,27.95
2022-08-22T18:51:34.857Z,27.90
2022-08-22T18:54:32.424Z,27.84
2022-08-22T18:57:09.356Z,27.79
2022-08-22T18:59:59.218Z,27.73
2022-08-22T19:03:05.421Z,27.65
2022-08-22T19:06:02.211Z,27.60
2022-08-22T19:09:18.412Z,27.53
2022-08-22T19:11:56.705Z,27.48
2022-08-22T19:14:43.204Z,27.40
2022-08-22T19:17:28.638Z,27.34
2022-08-22T19:20:19.651Z,27.28
2022-08-22T19:22:51.085Z,27.19
2022-08-22T19:25:26.154Z,27.14
2022-08-22T19:28:23.993Z,27.07
2022-08-22T19:30:53.402Z,27.01
2022-08-22T19:33:34.690Z,26.96
2022-08-22T19:36:10.800Z,26.90
2022-08-22T19:38:56.722Z,26.83
2022-08-22T19:41:47.157Z,26.77
2022-08-22T19:44:34.612Z,26.69
2022-08-22T19:47:13.372Z,26.69
2022-08-22T19:49:48.757Z,26.64
2022-08-22T19:52:23.925Z,26.62
2022-08-22T19:54:59.840Z,26.58
2022-08-22T19:57:42.715Z,26.52
2022-08-22T20:00:14.042Z,26.46
2022-08-22T20:02:57.415Z,26.41
2022-08-22T20:05:37.334Z,26.38
2022-08-22T20:08:24.938Z,26.33
2022-08-22T20:11:03.949Z,26.30
2022-08-22T20:13:35.285Z,26.27
2022-08-22T20:16:14.155Z,26.21
2022-08-22T20:19:00.255Z,26.21
2022-08-22T20:21:46.647Z,26.19
2022-08-22T20:24:21.021Z,26.15
2022-08-22T20:27:12.653Z,26.11
2022-08-22T20:29:48.010Z,26.10
2022-08-22T20:32:19.430Z,26.06
2022-08-22T20:34:50.327Z,26.03
2022-08-22T20:37:44.991Z,26.03
2022-08-22T20:40:54.504Z,26.01
2022-08-22T20:43:17.968Z,25.98
2022-08-22T20:45:59.481Z,25.98
2022-08-22T20:48:37.672Z,25.95
2022-08-22T20:51:06.878Z,25.91
2022-08-22T20:53:37.521Z,25.90
2022-08-22T20:56:08.123Z,25.86
2022-08-22T20:58:39.079Z,25.83
2022-08-22T21:01:08.552Z,25.81
2022-08-22T21:03:42.447Z,25.77
2022-08-22T21:06:13.622Z,25.76
2022-08-22T21:08:43.960Z,25.73
2022-08-22T21:11:38.394Z,25.72
2022-08-22T21:14:19.456Z,25.70
2022-08-22T21:16:47.527Z,25.64
2022-08-22T21:19:20.348Z,25.61
2022-08-22T21:21:48.477Z,25.56
2022-08-22T21:24:17.940Z,25.54
2022-08-22T21:26:50.786Z,25.51
2022-08-22T21:29:32.705Z,25.49
2022-08-22T21:32:12.778Z,25.46
2022-08-22T21:34:44.907Z,25.44
2022-08-22T21:37:16.975Z,25.39
2022-08-22T21:39:49.137Z,25.39
2022-08-22T21:42:24.716Z,25.37
2022-08-22T21:44:57.425Z,25.35
2022-08-22T21:47:37.780Z,25.30
2022-08-22T21:50:26.727Z,25.28
2022-08-22T21:53:04.501Z,25.26
2022-08-22T21:55:35.245Z,25.22
2022-08-22T21:58:36.749Z,25.18
2022-08-22T22:01:27.799Z,25.14
2022-08-22T22:03:56.328Z,25.09
2022-08-22T22:06:24.148Z,25.05
2022-08-22T22:08:52.533Z,25.00
2022-08-22T22:11:22.450Z,24.98
2022-08-22T22:13:50.909Z,24.93
2022-08-22T22:16:25.062Z,24.92
2022-08-22T22:18:53.313Z,24.89
2022-08-22T22:21:21.508Z,24.84
2022-08-22T22:23:50.958Z,24.81
2022-08-22T22:26:21.040Z,24.77
2022-08-22T22:28:51.672Z,24.75
2022-08-22T22:31:19.802Z,24.71
2022-08-22T22:33:47.827Z,24.67
2022-08-22T22:36:21.367Z,24.66
2022-08-22T22:38:52.168Z,24.61
2022-08-22T22:41:25.580Z,24.59
2022-08-22T22:43:55.855Z,24.56
2022-08-22T22:46:24.350Z,24.52
2022-08-22T22:48:53.922Z,24.48
2022-08-22T22:51:22.226Z,24.45
2022-08-22T22:53:51.148Z,24.42
2022-08-22T22:56:23.801Z,24.40
2022-08-22T22:59:01.024Z,24.35
2022-08-22T23:02:01.458Z,24.34
2022-08-22T23:04:30.036Z,24.27
2022-08-22T23:06:58.514Z,24.24
2022-08-22T23:09:38.107Z,24.18
2022-08-22T23:12:13.041Z,24.19
2022-08-22T23:14:41.532Z,24.16
2022-08-22T23:17:11.303Z,24.14
2022-08-22T23:19:40.732Z,24.12
2022-08-22T23:22:10.710Z,24.10
2022-08-22T23:24:40.681Z,24.07
2022-08-22T23:27:10.751Z,24.06
2022-08-22T23:29:43.241Z,24.02
2022-08-22T23:32:13.900Z,23.99
2022-08-22T23:34:46.374Z,23.98
2022-08-22T23:37:18.678Z,23.96
2022-08-22T23:39:47.700Z,23.93
2022-08-22T23:42:17.001Z,23.91
2022-08-22T23:44:46.417Z,23.89
2022-08-22T23:47:16.818Z,23.88
2022-08-22T23:49:45.264Z,23.85
2022-08-22T23:52:14.916Z,23.82
2022-08-22T23:54:43.134Z,23.80
2022-08-22T23:57:11.967Z,23.77
2022-08-22T23:59:48.084Z,23.75
